地図

経路データ

SID SEASON NUMBER BASIN SUBBASIN NAME ISO_TIME NATURE LAT LON WMO_WIND WMO_PRES WMO_AGENCY TRACK_TYPE DIST2LAND LANDFALL IFLAG USA_AGENCY USA_ATCF_ID USA_LAT USA_LON USA_RECORD USA_STATUS USA_WIND USA_PRES USA_SSHS USA_R34_NE USA_R34_SE USA_R34_SW USA_R34_NW USA_R50_NE USA_R50_SE USA_R50_SW USA_R50_NW USA_R64_NE USA_R64_SE USA_R64_SW USA_R64_NW USA_POCI USA_ROCI USA_RMW USA_EYE TOKYO_LAT TOKYO_LON TOKYO_GRADE TOKYO_WIND TOKYO_PRES TOKYO_R50_DIR TOKYO_R50_LONG TOKYO_R50_SHORT TOKYO_R30_DIR TOKYO_R30_LONG TOKYO_R30_SHORT TOKYO_LAND CMA_LAT CMA_LON CMA_CAT CMA_WIND CMA_PRES HKO_LAT HKO_LON HKO_CAT HKO_WIND HKO_PRES NEWDELHI_LAT NEWDELHI_LON NEWDELHI_GRADE NEWDELHI_WIND NEWDELHI_PRES NEWDELHI_CI NEWDELHI_DP NEWDELHI_POCI REUNION_LAT REUNION_LON REUNION_TYPE REUNION_WIND REUNION_PRES REUNION_TNUM REUNION_CI REUNION_RMW REUNION_R34_NE REUNION_R34_SE REUNION_R34_SW REUNION_R34_NW REUNION_R50_NE REUNION_R50_SE REUNION_R50_SW REUNION_R50_NW REUNION_R64_NE REUNION_R64_SE REUNION_R64_SW REUNION_R64_NW BOM_LAT BOM_LON BOM_TYPE BOM_WIND BOM_PRES BOM_TNUM BOM_CI BOM_RMW BOM_R34_NE BOM_R34_SE BOM_R34_SW BOM_R34_NW BOM_R50_NE BOM_R50_SE BOM_R50_SW BOM_R50_NW BOM_R64_NE BOM_R64_SE BOM_R64_SW BOM_R64_NW BOM_ROCI BOM_POCI BOM_EYE BOM_POS_METHOD BOM_PRES_METHOD NADI_LAT NADI_LON NADI_CAT NADI_WIND NADI_PRES WELLINGTON_LAT WELLINGTON_LON WELLINGTON_WIND WELLINGTON_PRES DS824_LAT DS824_LON DS824_STAGE DS824_WIND DS824_PRES TD9636_LAT TD9636_LON TD9636_STAGE TD9636_WIND TD9636_PRES TD9635_LAT TD9635_LON TD9635_WIND TD9635_PRES TD9635_ROCI NEUMANN_LAT NEUMANN_LON NEUMANN_CLASS NEUMANN_WIND NEUMANN_PRES MLC_LAT MLC_LON MLC_CLASS MLC_WIND MLC_PRES USA_GUST BOM_GUST BOM_GUST_PER REUNION_GUST REUNION_GUST_PER USA_SEAHGT USA_SEARAD_NE USA_SEARAD_SE USA_SEARAD_SW USA_SEARAD_NW STORM_SPEED STORM_DIR
1942304N11085 1942 67 NI BB NOT_NAMED 1942-10-31 00:00:00 TS 10.9000 84.8000 main 465 446 _________O____ -1 10.9000 84.8000 TC 30 5 275
1942304N11085 1942 67 NI BB NOT_NAMED 1942-10-31 03:00:00 TS 10.9201 84.5567 main 446 426 _________PO___ -1 10.9301 84.4350 TC 30 10.9000 84.8000 1 6 278
1942304N11085 1942 67 NI BB NOT_NAMED 1942-10-31 06:00:00 TS 10.9802 84.2424 main 417 398 _________OP___ -1 11.0000 84.1000 TC 30 10.9504 84.4561 1 6 287
1942304N11085 1942 67 NI BB NOT_NAMED 1942-10-31 09:00:00 TS 11.0973 83.9528 main 404 388 _________PP___ -1 11.1475 83.8200 TC 30 11.0305 84.1298 1 6 301
1942304N11085 1942 67 NI BB NOT_NAMED 1942-10-31 12:00:00 TS 11.2851 83.7193 main 388 372 _________OP___ -1 11.4000 83.6000 TC 30 11.1703 83.8386 1 7 318
1942304N11085 1942 67 NI BB NOT_NAMED 1942-10-31 15:00:00 TS 11.5850 83.5063 main 372 354 _________PO___ -1 11.7700 83.4126 TC 30 11.4000 83.6000 1 8 333
1942304N11085 1942 67 NI BB NOT_NAMED 1942-10-31 18:00:00 TS 11.9685 83.3640 main 352 336 _________OP___ -1 12.2000 83.3000 TC 30 11.7370 83.4280 1 8 345
1942304N11085 1942 67 NI BB NOT_NAMED 1942-10-31 21:00:00 TS 12.3811 83.2926 main 336 329 _________PP___ -1 12.6150 83.2625 TC 30 12.1473 83.3228 1 8 355
1942304N11085 1942 67 NI BB NOT_NAMED 1942-11-01 00:00:00 TS 12.7920 83.2906 main 329 325 _________OP___ -1 13.0000 83.3000 TC 30 12.5839 83.2812 1 8 3
1942304N11085 1942 67 NI BB NOT_NAMED 1942-11-01 03:00:00 TS 13.1575 83.3388 main 325 325 _________PO___ -1 13.3150 83.3775 TC 30 13.0000 83.3000 1 7 12
1942304N11085 1942 67 NI BB NOT_NAMED 1942-11-01 06:00:00 TS 13.4664 83.4316 main 335 335 _________OP___ -1 13.6000 83.5000 TC 30 13.3328 83.3632 1 7 20
1942304N11085 1942 67 NI BB NOT_NAMED 1942-11-01 09:00:00 TS 13.7688 83.5624 main 342 327 _________PP___ -1 13.9000 83.6425 TC 30 13.6375 83.4822 1 7 25
1942304N11085 1942 67 NI BB NOT_NAMED 1942-11-01 12:00:00 TS 14.0617 83.7176 main 317 303 _________OP___ -1 14.2000 83.8000 TC 30 13.9234 83.6352 1 7 28
1942304N11085 1942 67 NI BB NOT_NAMED 1942-11-01 15:00:00 TS 14.3537 83.8750 main 300 288 _________PO___ -1 14.5075 83.9500 TC 30 14.2000 83.8000 1 6 27
1942304N11085 1942 67 NI BB NOT_NAMED 1942-11-01 18:00:00 TS 14.6350 84.0155 main 288 270 _________OP___ -1 14.8000 84.1000 TC 30 14.4699 83.9309 1 6 27
1942304N11085 1942 67 NI BB NOT_NAMED 1942-11-01 21:00:00 TS 14.8887 84.1565 main 278 270 _________PP___ -1 15.0425 84.2426 TC 30 14.7349 84.0704 1 6 29
1942304N11085 1942 67 NI BB NOT_NAMED 1942-11-02 00:00:00 TS 15.1537 84.3124 main 265 261 _________OP___ -1 15.3000 84.4000 TC 30 15.0074 84.2247 1 7 29
1942304N11085 1942 67 NI BB NOT_NAMED 1942-11-02 03:00:00 TS 15.4675 84.4925 main 265 257 _________PO___ -1 15.6350 84.5850 TC 30 15.3000 84.4000 1 8 29
1942304N11085 1942 67 NI BB NOT_NAMED 1942-11-02 06:00:00 TS 15.8162 84.6897 main 257 239 _________OP___ -1 16.0000 84.8000 TC 30 15.6323 84.5793 1 8 30
1942304N11085 1942 67 NI BB NOT_NAMED 1942-11-02 09:00:00 TS 16.1673 84.9053 main 239 227 _________PP___ -1 16.3499 85.0276 TC 30 15.9847 84.7829 1 8 33
1942304N11085 1942 67 NI BB NOT_NAMED 1942-11-02 12:00:00 TS 16.5224 85.1600 main 232 208 _________OP___ -1 16.7000 85.3000 TC 30 16.3447 85.0201 1 9 37
1942304N11085 1942 67 NI BB NOT_NAMED 1942-11-02 15:00:00 TS 16.8787 85.4638 main 215 207 _________PO___ -1 17.0575 85.6275 TC 30 16.7000 85.3000 1 10 43
1942304N11085 1942 67 NI BB NOT_NAMED 1942-11-02 18:00:00 TS 17.2225 85.8360 main 215 215 _________OP___ -1 17.4000 86.0000 TC 30 17.0449 85.6719 1 10 49
1942304N11085 1942 67 NI BB NOT_NAMED 1942-11-02 21:00:00 TS 17.5480 86.2583 main 231 224 _________PP___ -1 17.7152 86.4374 TC 30 17.3808 86.0791 1 10 51
1942304N11085 1942 67 NI BB NOT_NAMED 1942-11-03 00:00:00 TS 17.8506 86.6359 main 228 214 _________OP___ -1 18.0000 86.8000 TC 30 17.7012 86.4719 1 8 45
1942304N11085 1942 67 NI BB NOT_NAMED 1942-11-03 03:00:00 TS 18.1287 86.8689 main 218 186 _________PO___ -1 18.2573 86.9378 TC 31 18.0000 86.8000 1 6 29
1942304N11085 1942 67 NI BB NOT_NAMED 1942-11-03 06:00:00 TS 18.3788 86.9407 main 186 168 _________OP___ -1 18.5000 87.0000 TC 32 18.2575 86.8815 1 5 12
1942304N11085 1942 67 NI BB NOT_NAMED 1942-11-03 09:00:00 TS 18.6119 86.9784 main 168 143 _________PP___ -1 18.7269 87.0457 TC 33 18.4969 86.9112 1 5 23
1942304N11085 1942 67 NI BB NOT_NAMED 1942-11-03 12:00:00 TS 18.8690 87.1550 main 148 145 _________OP___ -1 19.0000 87.3000 TC 34 18.7380 87.0101 1 9 47
1942304N11085 1942 67 NI BB NOT_NAMED 1942-11-03 15:00:00 TS 19.2002 87.6434 main 154 153 _________PO___ -1 19.4004 87.9869 TC 36 19.0000 87.3000 2 13 59
1942304N11085 1942 67 NI BB NOT_NAMED 1942-11-03 18:00:00 TS 19.5123 88.3118 main 189 189 _________OP___ -1 19.8000 88.9000 TC 39 19.2965 87.8706 2 15 67
1942304N11085 1942 67 NI BB NOT_NAMED 1942-11-03 21:00:00 TS 19.8073 89.1324 main 201 186 _________PP___ -1 20.0880 89.8126 TC 42 19.6201 88.6790 2 17 71
1942304N11085 1942 67 NI BB NOT_NAMED 1942-11-04 00:00:00 TS 20.0723 89.9988 main 189 172 _________OP___ -1 20.3000 90.7000 TC 45 19.9585 89.6482 2 16 71
1942304N11085 1942 67 NI BB NOT_NAMED 1942-11-04 03:00:00 NR 20.3000 90.7000 main 175 __________O___ -1 TC 20.3000 90.7000 3 14 71

IBTrACS Databaseについて

本データベースは、米国NOAAが公開する1842年以降の世界の熱帯低気圧のベストトラックデータアーカイブInternational Best Track Archive for Climate Stewardship (IBTrACS)を、ウェブで閲覧しやすい形式に変換したものです。

最終更新日:2021-11-26